createdAt,value
2022-10-18T00:04:48.551Z,11.85
2022-10-18T00:10:41.049Z,11.68
2022-10-18T00:16:32.941Z,9.38
2022-10-18T00:22:25.664Z,12.18
2022-10-18T00:28:17.883Z,10.33
2022-10-18T00:34:12.293Z,10.93
2022-10-18T00:40:05.663Z,11.27
2022-10-18T00:45:58.170Z,11.23
2022-10-18T00:51:59.163Z,11.98
2022-10-18T00:57:51.324Z,9.32
2022-10-18T01:03:44.024Z,9.63
2022-10-18T01:09:40.573Z,11.45
2022-10-18T01:15:41.548Z,9.40
2022-10-18T01:21:33.692Z,8.80
2022-10-18T01:27:43.872Z,10.93
2022-10-18T01:33:39.022Z,11.65
2022-10-18T01:39:35.836Z,11.93
2022-10-18T01:45:29.413Z,9.00
2022-10-18T01:51:29.342Z,9.68
2022-10-18T01:57:38.041Z,11.73
2022-10-18T02:03:30.272Z,10.50
2022-10-18T02:09:31.853Z,9.32
2022-10-18T02:15:29.371Z,9.85
2022-10-18T02:21:21.785Z,9.07
2022-10-18T02:27:13.822Z,11.63
2022-10-18T02:33:17.373Z,10.05
2022-10-18T02:39:14.737Z,11.90
2022-10-18T02:45:07.483Z,13.70
2022-10-18T02:51:00.441Z,12.82
2022-10-18T02:56:52.473Z,10.93
2022-10-18T03:02:44.368Z,10.70
2022-10-18T03:08:36.460Z,9.80
2022-10-18T03:14:28.243Z,12.23
2022-10-18T03:20:20.644Z,14.55
2022-10-18T03:32:06.223Z,12.18
2022-10-18T03:37:58.124Z,21.80
2022-10-18T03:43:50.656Z,12.25
2022-10-18T03:49:42.363Z,15.52
2022-10-18T03:55:34.485Z,15.35
2022-10-18T04:01:26.659Z,14.27
2022-10-18T04:07:19.197Z,13.18
2022-10-18T04:13:11.629Z,11.82
2022-10-18T04:19:03.926Z,13.63
2022-10-18T04:24:57.466Z,12.87
2022-10-18T04:30:50.655Z,11.60
2022-10-18T04:36:42.616Z,11.40
2022-10-18T04:42:34.692Z,11.98
2022-10-18T04:48:26.652Z,16.73
2022-10-18T04:54:18.778Z,12.85
2022-10-18T05:00:10.870Z,9.82
2022-10-18T05:06:03.089Z,9.88
2022-10-18T05:11:55.830Z,13.05
2022-10-18T05:17:47.599Z,12.10
2022-10-18T05:23:39.719Z,12.48
2022-10-18T05:29:31.707Z,15.98
2022-10-18T05:35:23.960Z,20.05
2022-10-18T05:41:16.580Z,17.27
2022-10-18T05:47:08.751Z,14.90
2022-10-18T05:53:11.936Z,17.45
2022-10-18T05:59:12.504Z,12.38
2022-10-18T06:05:05.160Z,13.48
2022-10-18T06:10:57.819Z,13.90
2022-10-18T06:16:50.814Z,14.77
2022-10-18T06:22:42.677Z,12.57
2022-10-18T06:28:36.007Z,16.95
2022-10-18T06:34:29.379Z,12.27
2022-10-18T06:40:21.961Z,14.03
2022-10-18T06:46:14.090Z,14.23
2022-10-18T06:52:07.601Z,10.45
2022-10-18T06:57:59.980Z,12.60
2022-10-18T07:03:53.497Z,11.43
2022-10-18T07:09:46.310Z,14.57
2022-10-18T07:15:40.160Z,10.55
2022-10-18T07:21:33.032Z,29.42
2022-10-18T07:27:25.101Z,13.27
2022-10-18T07:33:16.855Z,11.15
2022-10-18T07:39:09.570Z,13.03
2022-10-18T07:50:54.638Z,15.32
2022-10-18T07:56:47.416Z,15.70
2022-10-18T08:02:41.162Z,15.63
2022-10-18T08:08:33.349Z,11.15
2022-10-18T08:14:24.920Z,10.67
2022-10-18T08:20:29.748Z,11.65
2022-10-18T08:26:23.600Z,11.15
2022-10-18T08:32:16.429Z,9.63
2022-10-18T08:38:16.503Z,10.02
2022-10-18T08:44:11.171Z,10.45
2022-10-18T08:50:24.507Z,10.30
2022-10-18T08:56:21.770Z,13.30
2022-10-18T09:02:32.922Z,13.10
2022-10-18T09:08:28.237Z,9.17
2022-10-18T09:14:24.254Z,10.27
2022-10-18T09:20:17.248Z,8.65
2022-10-18T09:26:23.162Z,9.40
2022-10-18T09:32:24.702Z,10.02
2022-10-18T09:38:20.151Z,9.35
2022-10-18T09:44:32.949Z,10.55
2022-10-18T09:50:25.580Z,14.57
2022-10-18T09:56:39.388Z,8.65
2022-10-18T10:02:34.343Z,10.52
2022-10-18T10:08:32.942Z,13.40
2022-10-18T10:14:27.725Z,10.90
2022-10-18T10:20:23.208Z,14.27
2022-10-18T10:26:24.590Z,8.48
2022-10-18T10:32:17.891Z,11.65
2022-10-18T10:38:22.630Z,10.57
2022-10-18T10:44:19.499Z,12.05
2022-10-18T10:50:12.953Z,9.88
2022-10-18T10:56:07.388Z,9.52
2022-10-18T11:02:11.799Z,11.63
2022-10-18T11:08:05.731Z,9.95
2022-10-18T11:20:21.666Z,14.60
2022-10-18T11:26:13.840Z,13.18
2022-10-18T11:38:06.727Z,10.83
2022-10-18T11:44:03.052Z,11.73
2022-10-18T11:50:06.725Z,11.38
2022-10-18T11:56:08.183Z,14.85
2022-10-18T12:02:16.284Z,10.10
2022-10-18T12:08:12.027Z,15.95
2022-10-18T12:14:08.275Z,9.85
2022-10-18T12:20:04.929Z,14.32
2022-10-18T12:26:01.150Z,11.30
2022-10-18T12:31:56.931Z,10.20
2022-10-18T12:38:01.189Z,10.20
2022-10-18T12:43:55.129Z,10.77
2022-10-18T12:49:55.449Z,11.32
2022-10-18T12:55:50.640Z,12.80
2022-10-18T13:01:53.329Z,10.05
2022-10-18T13:07:46.111Z,11.47
2022-10-18T13:13:56.289Z,12.25
2022-10-18T13:20:20.617Z,11.02
2022-10-18T13:26:14.020Z,12.82
2022-10-18T13:32:18.059Z,11.45
2022-10-18T13:38:36.421Z,10.45
2022-10-18T13:44:31.965Z,11.20
2022-10-18T13:50:28.171Z,11.05
2022-10-18T13:56:34.728Z,13.55
2022-10-18T14:02:49.694Z,13.55
2022-10-18T14:08:44.992Z,12.60
2022-10-18T14:14:48.179Z,15.07
2022-10-18T14:21:12.385Z,17.43
2022-10-18T14:27:33.601Z,16.20
2022-10-18T14:33:26.948Z,14.10
2022-10-18T14:45:24.637Z,12.77
2022-10-18T14:51:19.288Z,9.27
2022-10-18T14:57:19.782Z,5.47
2022-10-18T15:03:14.351Z,4.32
2022-10-18T15:09:06.770Z,3.75
2022-10-18T15:15:01.359Z,4.35
2022-10-18T15:21:12.049Z,2.38
2022-10-18T15:27:12.832Z,4.80
2022-10-18T15:33:10.009Z,2.05
2022-10-18T15:39:14.860Z,1.50
2022-10-18T15:45:22.641Z,2.13
2022-10-18T15:51:32.841Z,1.77
2022-10-18T15:57:27.821Z,1.85
2022-10-18T16:03:24.234Z,1.58
2022-10-18T16:09:18.300Z,3.53
2022-10-18T16:15:10.680Z,1.88
2022-10-18T16:21:02.458Z,1.38
2022-10-18T16:26:55.185Z,2.55
2022-10-18T16:32:49.182Z,6.53
2022-10-18T16:38:41.791Z,2.67
2022-10-18T16:44:33.828Z,10.80
2022-10-18T16:50:26.270Z,5.80
2022-10-18T16:56:20.498Z,6.10
2022-10-18T17:02:12.424Z,3.80
2022-10-18T17:08:05.193Z,8.63
2022-10-18T17:13:58.185Z,5.60
2022-10-18T17:19:50.771Z,5.83
2022-10-18T17:25:57.854Z,5.40
2022-10-18T17:31:58.810Z,7.10
2022-10-18T17:37:52.229Z,5.47
2022-10-18T17:43:44.886Z,5.75
2022-10-18T17:49:37.922Z,5.20
2022-10-18T17:55:30.420Z,10.68
2022-10-18T18:01:23.560Z,7.40
2022-10-18T18:07:15.976Z,7.43
2022-10-18T18:13:09.810Z,10.77
2022-10-18T18:19:08.819Z,8.00
2022-10-18T18:25:04.361Z,7.90
2022-10-18T18:30:57.001Z,7.45
2022-10-18T18:36:50.034Z,10.05
2022-10-18T18:42:43.179Z,10.38
2022-10-18T18:48:36.309Z,11.73
2022-10-18T18:54:33.774Z,10.77
2022-10-18T19:00:28.419Z,11.73
2022-10-18T19:06:22.137Z,9.70
2022-10-18T19:18:12.476Z,10.23
2022-10-18T19:24:06.270Z,10.40
2022-10-18T19:29:59.590Z,13.55
2022-10-18T19:35:53.903Z,8.90
2022-10-18T19:41:48.908Z,14.75
2022-10-18T19:47:44.312Z,14.15
2022-10-18T19:53:37.109Z,15.68
2022-10-18T19:59:29.700Z,9.48
2022-10-18T20:05:22.310Z,8.27
2022-10-18T20:11:16.208Z,9.23
2022-10-18T20:17:12.709Z,10.02
2022-10-18T20:23:04.985Z,11.40
2022-10-18T20:28:58.781Z,10.73
2022-10-18T20:34:51.139Z,14.25
2022-10-18T20:40:43.225Z,15.30
2022-10-18T20:46:37.161Z,13.43
2022-10-18T20:52:28.749Z,9.70
2022-10-18T20:58:21.536Z,14.52
2022-10-18T21:04:14.286Z,17.60
2022-10-18T21:10:06.718Z,16.85
2022-10-18T21:15:59.995Z,14.48
2022-10-18T21:21:55.208Z,17.25
2022-10-18T21:27:47.596Z,15.63
2022-10-18T21:33:41.256Z,13.90
2022-10-18T21:39:33.409Z,13.50
2022-10-18T21:45:25.275Z,11.90
2022-10-18T21:51:18.256Z,14.40
2022-10-18T21:57:10.261Z,14.67
2022-10-18T22:03:11.970Z,14.00
2022-10-18T22:09:06.057Z,10.30
2022-10-18T22:14:58.409Z,11.63
2022-10-18T22:20:57.281Z,10.27
2022-10-18T22:26:50.310Z,11.73
2022-10-18T22:32:42.492Z,11.50
2022-10-18T22:38:35.355Z,10.20
2022-10-18T22:44:27.577Z,10.23
2022-10-18T22:50:19.633Z,9.88
2022-10-18T22:56:16.082Z,10.43
2022-10-18T23:02:08.620Z,13.50
2022-10-18T23:08:00.697Z,11.98
2022-10-18T23:13:52.940Z,15.90
2022-10-18T23:19:45.896Z,10.35
2022-10-18T23:25:39.187Z,12.70
2022-10-18T23:31:32.337Z,13.73
2022-10-18T23:37:24.800Z,8.27
2022-10-18T23:43:16.741Z,14.50
2022-10-18T23:49:08.841Z,12.27
2022-10-18T23:55:00.699Z,11.25
